Time;durP1;ratioP1;P1;durP2;ratioP2;P2;SDS_P1;SDS_P2;PMS_P1;PMS_P2;Temp;Humidity;BMP_temperature;BMP_pressure;BME280_temperature;BME280_humidity;BME280_pressure;Samples;Min_cycle;Max_cycle;Signal;HPM_P1;HPM_P2
2022/02/01 00:02:19;;;;;;;19.93;4.20;;;3.30;99.90;;;;;;5036980;28;20477;-78
2022/02/01 00:04:55;;;;;;;23.23;4.60;;;3.30;99.90;;;;;;5045380;28;20503;-79
2022/02/01 00:07:33;;;;;;;21.47;4.73;;;3.20;99.90;;;;;;5049971;28;20801;-79
2022/02/01 00:10:09;;;;;;;24.47;4.50;;;3.20;99.90;;;;;;5046854;28;20453;-78
2022/02/01 00:12:45;;;;;;;17.53;5.50;;;3.10;99.90;;;;;;5041065;28;20449;-78
2022/02/01 00:15:30;;;;;;;25.07;5.40;;;3.00;99.90;;;;;;5035588;28;20471;-78
2022/02/01 00:34:33;;;;;;;9.50;2.80;;;3.00;99.90;;;;;;5033910;28;20979;-79
2022/02/01 00:37:04;;;;;;;21.67;5.23;;;3.10;99.90;;;;;;5032136;28;20457;-78
2022/02/01 00:39:42;;;;;;;22.97;5.87;;;3.10;99.90;;;;;;5034875;28;20487;-79
2022/02/01 00:42:10;;;;;;;22.40;6.47;;;3.20;99.90;;;;;;5031491;28;20481;-78
2022/02/01 00:44:37;;;;;;;17.67;4.93;;;3.20;99.90;;;;;;5035310;28;20472;-79
2022/02/01 00:47:05;;;;;;;21.17;3.87;;;3.20;99.90;;;;;;5030998;28;20465;-79
2022/02/01 00:49:33;;;;;;;19.10;4.93;;;3.20;99.90;;;;;;5033592;28;20472;-78
2022/02/01 00:52:00;;;;;;;18.70;4.33;;;3.00;99.90;;;;;;5028450;28;20445;-79
2022/02/01 00:54:27;;;;;;;14.40;3.90;;;3.10;99.90;;;;;;5026769;28;20488;-80
2022/02/01 00:56:55;;;;;;;14.10;3.87;;;3.20;99.90;;;;;;5034285;28;20556;-78
2022/02/01 00:59:22;;;;;;;15.00;3.37;;;3.20;99.90;;;;;;5035167;28;20455;-78
2022/02/01 01:01:49;;;;;;;9.57;3.20;;;3.20;99.90;;;;;;5032757;28;20491;-80
2022/02/01 01:04:16;;;;;;;13.73;3.03;;;3.30;99.90;;;;;;5031716;28;20461;-79
2022/02/01 01:06:42;;;;;;;19.30;3.90;;;3.40;99.90;;;;;;5034513;28;20522;-78
2022/02/01 01:09:09;;;;;;;16.53;3.77;;;3.40;99.90;;;;;;5031338;28;20457;-79
2022/02/01 01:11:36;;;;;;;15.67;3.27;;;3.40;99.90;;;;;;5033830;28;20535;-79
2022/02/01 01:14:33;;;;;;;13.97;3.87;;;3.50;99.90;;;;;;5032572;28;20449;-78
2022/02/01 01:17:33;;;;;;;20.00;4.17;;;3.60;99.90;;;;;;5034873;28;20432;-78
2022/02/01 01:44:39;;;;;;;14.17;3.10;;;3.90;99.90;;;;;;5035303;28;20522;-79
2022/02/01 01:55:23;;;;;;;12.07;3.17;;;4.10;99.90;;;;;;5043015;28;20476;-78
2022/02/01 01:57:50;;;;;;;20.83;3.67;;;4.00;99.90;;;;;;5037607;28;20456;-78
2022/02/01 02:00:31;;;;;;;15.40;3.13;;;4.10;99.90;;;;;;5035224;28;20540;-78
2022/02/01 02:02:59;;;;;;;13.50;3.17;;;4.20;99.90;;;;;;5040431;28;20489;-77
2022/02/01 02:05:26;;;;;;;11.50;2.60;;;4.10;99.90;;;;;;5037178;28;20529;-79
2022/02/01 02:07:53;;;;;;;15.67;3.40;;;4.10;99.90;;;;;;5037735;28;20457;-79
2022/02/01 02:10:27;;;;;;;14.23;3.00;;;4.10;99.90;;;;;;5034428;28;20466;-79
2022/02/01 02:12:59;;;;;;;9.83;2.70;;;4.10;99.90;;;;;;5036246;28;20532;-79
2022/02/01 02:15:31;;;;;;;14.93;2.80;;;4.20;99.90;;;;;;5039349;28;20468;-79
2022/02/01 02:18:01;;;;;;;11.63;3.30;;;4.20;99.90;;;;;;5037488;28;20536;-80
2022/02/01 02:20:40;;;;;;;11.83;2.73;;;4.20;99.90;;;;;;5037544;28;20475;-79
2022/02/01 02:23:10;;;;;;;7.30;2.50;;;4.10;99.90;;;;;;5034913;28;20859;-79
2022/02/01 02:25:37;;;;;;;7.40;2.47;;;4.00;99.90;;;;;;5030735;28;20476;-79
2022/02/01 02:28:05;;;;;;;9.93;2.33;;;4.10;99.90;;;;;;5036199;28;20460;-79
2022/02/01 02:30:32;;;;;;;15.53;3.43;;;4.10;99.90;;;;;;5040690;28;20453;-80
2022/02/01 02:33:02;;;;;;;14.07;2.87;;;4.10;99.90;;;;;;5043017;28;20452;-79
2022/02/01 02:35:33;;;;;;;11.80;2.53;;;4.10;99.90;;;;;;5025364;28;20481;-79
2022/02/01 02:38:03;;;;;;;12.30;3.03;;;4.20;99.90;;;;;;5028611;28;20883;-79
2022/02/01 02:40:44;;;;;;;11.43;2.60;;;4.10;99.90;;;;;;5038513;28;20471;-80
2022/02/01 02:45:56;;;;;;;8.40;2.60;;;4.10;99.90;;;;;;5029369;28;20539;-80
2022/02/01 02:48:22;;;;;;;19.70;3.50;;;4.10;99.90;;;;;;5038694;28;20972;-79
2022/02/01 02:50:49;;;;;;;23.73;3.47;;;4.10;99.90;;;;;;5040849;28;20448;-79
2022/02/01 02:53:16;;;;;;;13.67;2.77;;;4.10;99.90;;;;;;5032191;28;20455;-79
2022/02/01 02:55:44;;;;;;;9.63;3.00;;;4.10;99.90;;;;;;5036323;28;20470;-79
2022/02/01 02:58:11;;;;;;;9.80;2.97;;;4.10;99.90;;;;;;5036044;28;20457;-78
2022/02/01 03:00:39;;;;;;;20.30;3.53;;;4.10;99.90;;;;;;5036486;28;20843;-78
2022/02/01 03:03:05;;;;;;;10.93;2.90;;;4.00;99.90;;;;;;5047179;28;20900;-78
2022/02/01 03:05:32;;;;;;;17.00;4.07;;;4.00;99.90;;;;;;5035981;28;20478;-79
2022/02/01 03:07:59;;;;;;;9.63;2.80;;;4.00;99.90;;;;;;5041613;28;20457;-78
2022/02/01 03:10:27;;;;;;;13.33;2.70;;;4.00;99.90;;;;;;5043522;28;20456;-79
2022/02/01 03:13:09;;;;;;;12.77;3.00;;;4.00;99.90;;;;;;5027419;28;20540;-79
2022/02/01 03:15:44;;;;;;;8.80;3.07;;;4.00;99.90;;;;;;5021134;28;20492;-80
2022/02/01 03:20:55;;;;;;;9.27;3.03;;;4.00;99.90;;;;;;5038295;28;20423;-80
2022/02/01 03:23:22;;;;;;;16.17;3.70;;;4.00;99.90;;;;;;5032023;28;20516;-80
2022/02/01 03:25:49;;;;;;;12.43;2.80;;;3.90;99.90;;;;;;5018477;28;20473;-80
2022/02/01 03:28:18;;;;;;;10.33;3.00;;;3.90;99.90;;;;;;5038030;28;20492;-81
2022/02/01 03:30:44;;;;;;;18.03;3.43;;;3.90;99.90;;;;;;5054757;28;20454;-79
2022/02/01 03:33:11;;;;;;;14.00;4.17;;;4.00;99.90;;;;;;5038180;28;20535;-80
2022/02/01 03:35:38;;;;;;;6.90;2.50;;;4.10;99.90;;;;;;5026806;28;20511;-80
2022/02/01 03:38:05;;;;;;;20.73;3.53;;;4.10;99.90;;;;;;5058341;28;20449;-80
2022/02/01 03:40:32;;;;;;;11.37;3.37;;;4.00;99.90;;;;;;5022417;28;20962;-80
2022/02/01 03:42:59;;;;;;;9.07;2.73;;;4.10;99.90;;;;;;5039512;28;20936;-78
2022/02/01 03:45:27;;;;;;;10.57;3.10;;;4.10;99.90;;;;;;5022818;28;20480;-80
2022/02/01 03:47:53;;;;;;;15.03;4.50;;;4.10;99.90;;;;;;5039589;28;20454;-79
2022/02/01 03:50:20;;;;;;;9.73;3.40;;;4.20;99.90;;;;;;5037665;28;20543;-80
2022/02/01 03:52:47;;;;;;;14.23;3.63;;;4.20;99.90;;;;;;5038394;28;20460;-80
2022/02/01 03:55:14;;;;;;;16.33;4.90;;;4.20;99.90;;;;;;5035740;28;20492;-80
2022/02/01 03:57:41;;;;;;;13.87;5.10;;;4.20;99.90;;;;;;5055563;28;20881;-81
2022/02/01 04:00:09;;;;;;;16.80;4.77;;;4.20;99.90;;;;;;5025166;28;20459;-81
2022/02/01 04:02:37;;;;;;;18.27;4.90;;;4.20;99.90;;;;;;5052405;28;20488;-81
2022/02/01 04:05:04;;;;;;;11.83;4.77;;;4.20;99.90;;;;;;5039810;28;20475;-79
2022/02/01 04:07:31;;;;;;;13.20;3.73;;;4.10;99.90;;;;;;5037844;28;20441;-79
2022/02/01 04:09:58;;;;;;;16.40;4.80;;;4.10;99.90;;;;;;5042241;28;20457;-79
2022/02/01 04:12:31;;;;;;;28.50;5.97;;;4.20;99.90;;;;;;5015363;28;20465;-80
2022/02/01 04:14:58;;;;;;;10.03;3.63;;;4.10;99.90;;;;;;5041951;28;20838;-79
2022/02/01 04:17:25;;;;;;;18.10;3.57;;;4.20;99.90;;;;;;5054764;28;20876;-79
2022/02/01 04:19:54;;;;;;;13.00;2.87;;;4.00;99.90;;;;;;5040615;28;20504;-79
2022/02/01 04:22:21;;;;;;;13.80;3.27;;;4.00;99.90;;;;;;5034344;28;20490;-79
2022/02/01 04:24:48;;;;;;;19.10;3.60;;;4.00;99.90;;;;;;5043026;28;21043;-79
2022/02/01 04:27:27;;;;;;;6.80;2.70;;;4.00;99.90;;;;;;5054177;28;20474;-79
2022/02/01 04:30:04;;;;;;;14.07;3.23;;;4.00;99.90;;;;;;5050632;28;20451;-79
2022/02/01 04:32:31;;;;;;;15.83;3.40;;;3.80;99.90;;;;;;5038439;28;20504;-79
2022/02/01 04:37:27;;;;;;;15.43;2.73;;;3.80;99.90;;;;;;5002337;28;20478;-81
2022/02/01 04:39:54;;;;;;;14.20;3.63;;;3.70;99.90;;;;;;5008644;28;20555;-81
2022/02/01 04:42:21;;;;;;;13.40;2.63;;;3.70;99.90;;;;;;5007937;28;20461;-81
2022/02/01 04:44:48;;;;;;;11.17;2.50;;;3.80;99.90;;;;;;5012029;28;20459;-80
2022/02/01 04:47:14;;;;;;;9.80;2.20;;;3.80;99.90;;;;;;5002809;28;20578;-79
2022/02/01 04:49:41;;;;;;;10.70;3.10;;;3.80;99.90;;;;;;5013515;28;20963;-80
2022/02/01 04:52:08;;;;;;;7.23;3.17;;;3.80;99.90;;;;;;5008341;28;20462;-82
2022/02/01 04:54:36;;;;;;;12.00;2.63;;;3.80;99.90;;;;;;5004186;28;20447;-83
2022/02/01 04:57:04;;;;;;;10.33;2.20;;;3.80;99.90;;;;;;4999655;28;20569;-82
2022/02/01 04:59:32;;;;;;;16.13;2.60;;;3.90;99.90;;;;;;5002580;28;20473;-82
2022/02/01 05:01:59;;;;;;;10.20;2.80;;;3.90;99.90;;;;;;5004225;28;20450;-82
2022/02/01 05:04:25;;;;;;;7.93;1.97;;;3.90;99.90;;;;;;5010613;28;20529;-82
2022/02/01 05:06:54;;;;;;;17.03;2.70;;;3.90;99.90;;;;;;5001823;28;20509;-81
2022/02/01 05:09:21;;;;;;;8.57;2.00;;;3.90;99.90;;;;;;4999921;28;20459;-82
2022/02/01 05:11:50;;;;;;;13.13;2.57;;;3.90;99.90;;;;;;5001906;28;20459;-83
2022/02/01 05:14:21;;;;;;;15.90;3.53;;;3.90;99.90;;;;;;5004098;28;20486;-81
2022/02/01 05:16:58;;;;;;;11.70;2.40;;;3.90;99.90;;;;;;5002833;28;20479;-81
2022/02/01 05:19:35;;;;;;;9.87;3.13;;;3.90;99.90;;;;;;5016530;28;20561;-81
2022/02/01 05:22:07;;;;;;;9.27;2.00;;;3.90;99.90;;;;;;5007505;28;20459;-81
2022/02/01 05:24:35;;;;;;;14.73;3.80;;;3.90;99.90;;;;;;5017818;28;20564;-78
2022/02/01 05:27:06;;;;;;;13.50;2.70;;;3.90;99.90;;;;;;5004745;28;20544;-81
2022/02/01 05:29:33;;;;;;;14.27;7.40;;;3.90;99.90;;;;;;5002339;28;20477;-84
2022/02/01 05:32:05;;;;;;;17.13;4.10;;;3.90;99.90;;;;;;4994064;28;20466;-82
2022/02/01 05:34:32;;;;;;;16.63;3.23;;;4.00;99.90;;;;;;5004868;28;20482;-79
2022/02/01 05:36:58;;;;;;;17.10;4.07;;;5.40;99.90;;;;;;5008903;28;20480;-81
2022/02/01 05:39:27;;;;;;;11.07;3.45;;;5.90;99.90;;;;;;5010467;28;20830;-79
2022/02/01 05:41:56;;;;;;;15.07;3.43;;;5.30;99.90;;;;;;5008862;28;20269;-80
2022/02/01 05:44:24;;;;;;;16.37;4.67;;;4.90;99.90;;;;;;5009146;28;20497;-81
2022/02/01 05:46:51;;;;;;;12.30;2.70;;;4.70;99.90;;;;;;5009492;28;20463;-81
2022/02/01 05:49:19;;;;;;;13.63;2.87;;;4.50;99.90;;;;;;5009581;28;20455;-81
2022/02/01 05:51:49;;;;;;;10.83;2.80;;;4.40;99.90;;;;;;5009086;28;20455;-82
2022/02/01 05:54:16;;;;;;;8.17;3.13;;;4.30;99.90;;;;;;5007897;28;20514;-81
2022/02/01 05:56:43;;;;;;;4.87;2.20;;;4.20;99.90;;;;;;5009474;28;20482;-81
2022/02/01 05:59:10;;;;;;;9.13;3.53;;;4.20;99.90;;;;;;5008161;28;20623;-81
2022/02/01 06:01:38;;;;;;;7.57;2.80;;;4.20;99.90;;;;;;5008179;28;20450;-81
2022/02/01 06:04:05;;;;;;;9.33;2.63;;;4.20;99.90;;;;;;5006616;28;20514;-81
2022/02/01 06:06:32;;;;;;;11.93;3.93;;;4.30;99.90;;;;;;5005920;28;20485;-81
2022/02/01 06:08:59;;;;;;;12.43;2.97;;;4.20;99.90;;;;;;5007519;28;20447;-81
2022/02/01 06:11:25;;;;;;;8.60;3.30;;;4.20;99.90;;;;;;5006387;28;20451;-81
2022/02/01 06:13:52;;;;;;;11.13;3.10;;;4.10;99.90;;;;;;5017495;28;20427;-78
2022/02/01 06:16:19;;;;;;;13.70;4.10;;;4.20;99.90;;;;;;5011043;28;20514;-80
2022/02/01 06:18:47;;;;;;;16.07;4.20;;;4.10;99.90;;;;;;5008520;28;20455;-80
2022/02/01 06:21:14;;;;;;;13.57;3.33;;;4.10;99.90;;;;;;5000031;28;20456;-81
2022/02/01 06:23:41;;;;;;;11.33;3.00;;;4.10;99.90;;;;;;5001993;28;20478;-79
2022/02/01 06:26:08;;;;;;;17.33;3.60;;;4.10;99.90;;;;;;5002418;28;20467;-81
2022/02/01 06:28:35;;;;;;;14.50;3.40;;;4.00;99.90;;;;;;5001577;28;20447;-80
2022/02/01 06:31:01;;;;;;;7.63;2.53;;;3.90;99.90;;;;;;5002205;28;21316;-85
2022/02/01 06:33:28;;;;;;;7.77;2.97;;;4.00;99.90;;;;;;4998519;28;20554;-81
2022/02/01 06:35:56;;;;;;;10.30;3.33;;;4.10;99.90;;;;;;4996737;28;20488;-79
2022/02/01 06:38:23;;;;;;;11.27;4.00;;;4.00;99.90;;;;;;4998406;28;20455;-80
2022/02/01 06:40:50;;;;;;;7.07;2.80;;;4.00;99.90;;;;;;4999054;28;20980;-81
2022/02/01 06:43:17;;;;;;;12.73;3.37;;;4.00;99.90;;;;;;5000350;28;20579;-79
2022/02/01 06:45:44;;;;;;;7.67;3.00;;;4.00;99.90;;;;;;5003884;28;20470;-80
2022/02/01 06:48:11;;;;;;;10.73;2.70;;;4.10;99.90;;;;;;5012114;28;20461;-80
2022/02/01 06:50:38;;;;;;;8.10;3.07;;;4.10;99.90;;;;;;5001943;28;20464;-79
2022/02/01 06:53:06;;;;;;;10.53;4.30;;;4.10;99.90;;;;;;4998650;28;20466;-80
2022/02/01 06:55:36;;;;;;;7.80;3.50;;;4.00;99.90;;;;;;4998843;28;20482;-79
2022/02/01 06:58:04;;;;;;;12.87;3.70;;;4.10;99.90;;;;;;4999994;28;20459;-81
2022/02/01 07:00:31;;;;;;;7.50;3.87;;;4.00;99.90;;;;;;4998729;28;20453;-80
2022/02/01 07:02:58;;;;;;;8.63;3.20;;;4.10;99.90;;;;;;5002022;28;20450;-78
2022/02/01 07:05:25;;;;;;;9.80;3.00;;;4.10;99.90;;;;;;5000539;28;20467;-81
2022/02/01 07:07:52;;;;;;;9.23;3.33;;;4.10;99.90;;;;;;5002358;28;20459;-80
2022/02/01 07:10:20;;;;;;;7.07;3.27;;;4.10;99.90;;;;;;5000903;28;20482;-80
2022/02/01 07:12:47;;;;;;;16.43;4.40;;;4.20;99.90;;;;;;5008424;28;20464;-78
2022/02/01 07:15:14;;;;;;;13.03;3.60;;;4.10;99.90;;;;;;4999185;28;20467;-81
2022/02/01 07:17:45;;;;;;;11.17;3.80;;;4.20;99.90;;;;;;4991808;28;20457;-80
2022/02/01 07:20:12;;;;;;;10.07;4.40;;;4.20;99.90;;;;;;4992389;28;20452;-79
2022/02/01 07:22:41;;;;;;;12.10;3.70;;;4.20;99.90;;;;;;4989438;28;20455;-81
2022/02/01 07:25:14;;;;;;;14.33;4.03;;;4.30;99.90;;;;;;4989187;28;20576;-81
2022/02/01 07:27:47;;;;;;;15.47;3.70;;;4.30;99.90;;;;;;4994053;28;20531;-79
2022/02/01 07:30:16;;;;;;;10.17;3.40;;;4.30;99.90;;;;;;4988267;28;20487;-80
2022/02/01 07:32:43;;;;;;;10.30;3.43;;;4.40;99.90;;;;;;4990093;28;20470;-80
2022/02/01 07:35:14;;;;;;;16.60;4.37;;;4.40;99.90;;;;;;4990782;28;20551;-80
2022/02/01 07:37:42;;;;;;;12.80;3.67;;;4.50;99.90;;;;;;4987893;28;20542;-80
2022/02/01 07:40:10;;;;;;;12.20;3.93;;;4.50;99.90;;;;;;4989901;28;20547;-80
2022/02/01 07:42:37;;;;;;;17.30;4.60;;;4.50;99.90;;;;;;4998418;28;20534;-81
2022/02/01 07:45:08;;;;;;;9.27;3.07;;;4.50;99.90;;;;;;4995793;28;20502;-80
2022/02/01 07:47:35;;;;;;;12.13;4.00;;;4.50;99.90;;;;;;4995027;28;20487;-80
2022/02/01 07:50:02;;;;;;;10.17;3.33;;;4.40;99.90;;;;;;4990706;28;20854;-80
2022/02/01 07:52:29;;;;;;;13.13;3.33;;;4.50;99.90;;;;;;4997030;28;20466;-80
2022/02/01 07:54:55;;;;;;;8.53;3.10;;;4.60;99.90;;;;;;4995332;28;20455;-80
2022/02/01 07:57:22;;;;;;;9.10;3.70;;;4.60;99.90;;;;;;4993960;28;20475;-79
2022/02/01 07:59:49;;;;;;;14.23;3.43;;;4.70;99.90;;;;;;4989186;28;20470;-79
2022/02/01 08:02:21;;;;;;;15.83;4.00;;;4.70;99.90;;;;;;4994225;28;20529;-80
2022/02/01 08:04:48;;;;;;;15.50;4.93;;;4.60;99.90;;;;;;4990067;28;20541;-79
2022/02/01 08:07:16;;;;;;;7.23;3.63;;;4.60;99.90;;;;;;4992576;28;20547;-80
2022/02/01 08:09:46;;;;;;;12.70;3.53;;;4.60;99.90;;;;;;4990997;28;20466;-80
2022/02/01 08:12:32;;;;;;;10.17;3.70;;;4.70;99.90;;;;;;4992519;28;20469;-79
2022/02/01 08:17:49;;;;;;;14.23;5.27;;;4.70;99.90;;;;;;4997660;28;20570;-80
2022/02/01 08:20:20;;;;;;;15.30;7.13;;;4.60;99.90;;;;;;4991737;28;20449;-80
2022/02/01 08:23:01;;;;;;;13.83;5.40;;;4.60;99.90;;;;;;5000251;28;20456;-80
2022/02/01 08:25:29;;;;;;;11.90;5.50;;;4.50;99.90;;;;;;5011508;28;20495;-81
2022/02/01 08:27:57;;;;;;;14.33;5.40;;;4.50;99.90;;;;;;4995069;28;20507;-82
2022/02/01 08:30:24;;;;;;;17.33;7.27;;;4.40;99.90;;;;;;4998860;28;20455;-82
2022/02/01 08:32:52;;;;;;;10.70;5.53;;;4.40;99.90;;;;;;4999650;28;20459;-82
2022/02/01 08:35:20;;;;;;;10.60;4.87;;;4.40;99.90;;;;;;5005045;28;20469;-82
2022/02/01 08:37:47;;;;;;;20.87;7.10;;;4.40;99.90;;;;;;5007154;28;20433;-83
2022/02/01 08:40:16;;;;;;;14.27;5.87;;;4.40;99.90;;;;;;5007590;28;20451;-83
2022/02/01 08:42:44;;;;;;;10.70;4.50;;;4.50;99.90;;;;;;5007438;28;20490;-82
2022/02/01 08:45:13;;;;;;;15.80;5.40;;;4.40;99.90;;;;;;5006655;28;20490;-82
2022/02/01 08:47:40;;;;;;;16.57;6.30;;;4.50;99.90;;;;;;5007905;28;20474;-83
2022/02/01 08:50:09;;;;;;;14.23;5.23;;;4.40;99.90;;;;;;5007414;28;20464;-83
2022/02/01 08:52:41;;;;;;;14.03;5.70;;;4.50;99.90;;;;;;5006788;28;20486;-83
2022/02/01 08:55:18;;;;;;;14.70;6.57;;;4.60;99.90;;;;;;5008241;28;20460;-83
2022/02/01 08:57:46;;;;;;;15.60;6.20;;;4.60;99.90;;;;;;5006913;28;20491;-82
2022/02/01 09:00:16;;;;;;;16.37;6.20;;;4.50;99.90;;;;;;5002664;28;20554;-82
2022/02/01 09:02:43;;;;;;;12.03;5.53;;;4.60;99.90;;;;;;5004972;28;20853;-82
2022/02/01 09:05:12;;;;;;;15.43;5.37;;;4.60;99.90;;;;;;5000742;28;20861;-82
2022/02/01 09:07:39;;;;;;;16.47;7.80;;;4.60;99.90;;;;;;4982286;28;20452;-81
2022/02/01 09:10:06;;;;;;;14.90;6.60;;;4.60;99.90;;;;;;4999706;28;20468;-80
2022/02/01 09:12:33;;;;;;;11.87;6.70;;;4.70;99.90;;;;;;5000188;28;20456;-81
2022/02/01 09:15:00;;;;;;;10.67;4.70;;;4.70;99.90;;;;;;4997054;28;20544;-82
2022/02/01 09:17:27;;;;;;;11.33;5.73;;;4.70;99.90;;;;;;4997312;28;20459;-81
2022/02/01 09:19:54;;;;;;;10.90;4.50;;;4.70;99.90;;;;;;4996018;28;20446;-80
2022/02/01 09:22:22;;;;;;;9.47;5.40;;;4.70;99.90;;;;;;4995310;28;20450;-82
2022/02/01 09:24:49;;;;;;;11.30;5.27;;;4.60;99.90;;;;;;4993633;28;20487;-81
2022/02/01 09:27:16;;;;;;;9.33;6.50;;;4.70;99.90;;;;;;4995193;28;20477;-80
2022/02/01 09:29:43;;;;;;;8.93;5.40;;;4.70;99.90;;;;;;4996171;28;20456;-81
2022/02/01 09:32:10;;;;;;;9.67;4.53;;;4.70;99.90;;;;;;4995854;28;20515;-82
2022/02/01 09:34:36;;;;;;;10.07;5.10;;;4.80;99.90;;;;;;4993202;28;20452;-79
2022/02/01 09:37:04;;;;;;;11.93;5.17;;;4.80;99.90;;;;;;4994111;28;20521;-81
2022/02/01 09:39:32;;;;;;;10.50;5.63;;;4.80;99.90;;;;;;4994917;28;20522;-81
2022/02/01 09:42:00;;;;;;;8.93;4.60;;;4.80;99.90;;;;;;4994984;28;20489;-81
2022/02/01 09:44:27;;;;;;;15.07;6.23;;;4.90;99.90;;;;;;4993540;28;21002;-82
2022/02/01 09:46:55;;;;;;;8.73;6.27;;;4.80;99.90;;;;;;4995341;28;20485;-80
2022/02/01 09:49:24;;;;;;;9.23;7.83;;;4.80;99.90;;;;;;4995096;28;20463;-81
2022/02/01 09:51:54;;;;;;;8.30;5.60;;;4.70;99.90;;;;;;4994264;28;20540;-81
2022/02/01 09:54:21;;;;;;;12.27;7.00;;;4.80;99.90;;;;;;4993174;28;20450;-79
2022/02/01 09:56:51;;;;;;;10.73;7.17;;;4.80;99.90;;;;;;5013585;28;20470;-79
2022/02/01 09:59:20;;;;;;;9.83;5.93;;;4.80;99.90;;;;;;5005257;28;20490;-80
2022/02/01 10:01:54;;;;;;;12.67;6.83;;;4.90;99.90;;;;;;4996918;28;20527;-81
2022/02/01 10:04:26;;;;;;;9.00;7.23;;;4.90;99.90;;;;;;5007454;28;20469;-80
2022/02/01 10:06:55;;;;;;;11.87;9.00;;;4.90;99.90;;;;;;4999044;28;20479;-79
2022/02/01 10:09:21;;;;;;;11.20;8.07;;;4.80;99.90;;;;;;5001577;28;20459;-80
2022/02/01 10:12:13;;;;;;;8.67;7.20;;;4.90;99.90;;;;;;4997177;28;20458;-80
2022/02/01 10:14:42;;;;;;;11.73;8.50;;;4.90;99.90;;;;;;5003795;28;20937;-79
2022/02/01 10:17:10;;;;;;;12.40;7.20;;;4.90;99.90;;;;;;4996996;28;20480;-78
2022/02/01 10:19:48;;;;;;;9.50;7.10;;;4.90;99.90;;;;;;4986605;28;20462;-80
2022/02/01 10:22:14;;;;;;;8.17;7.03;;;4.90;99.90;;;;;;5001369;28;20455;-79
2022/02/01 10:24:43;;;;;;;10.57;7.80;;;5.00;99.90;;;;;;5020552;28;20489;-80
2022/02/01 10:27:13;;;;;;;12.30;9.13;;;5.10;99.90;;;;;;5009949;28;20476;-81
2022/02/01 10:29:58;;;;;;;13.80;9.40;;;5.10;99.90;;;;;;5016943;28;20482;-81
2022/02/01 10:32:34;;;;;;;13.03;8.77;;;5.00;99.90;;;;;;5017556;28;20459;-81
2022/02/01 10:35:21;;;;;;;11.63;7.13;;;5.00;99.90;;;;;;5020342;28;21026;-81
2022/02/01 10:37:56;;;;;;;11.60;8.17;;;5.00;99.90;;;;;;5013010;28;20487;-81
2022/02/01 10:40:23;;;;;;;12.40;8.50;;;5.10;99.90;;;;;;5000827;28;20462;-81
2022/02/01 10:42:55;;;;;;;13.13;9.10;;;5.10;99.90;;;;;;4999914;28;20466;-80
2022/02/01 10:45:22;;;;;;;11.17;8.13;;;5.00;99.90;;;;;;4989655;28;20554;-79
2022/02/01 10:47:49;;;;;;;13.13;9.80;;;5.00;99.90;;;;;;5005773;28;20531;-82
2022/02/01 10:50:18;;;;;;;15.53;9.80;;;5.00;99.90;;;;;;5002103;28;20451;-80
2022/02/01 10:52:47;;;;;;;13.47;9.13;;;5.10;99.90;;;;;;5004833;28;20971;-81
2022/02/01 10:55:15;;;;;;;15.53;9.87;;;5.10;99.90;;;;;;5002609;28;20456;-81
2022/02/01 10:57:42;;;;;;;15.03;9.97;;;5.10;99.90;;;;;;5004393;28;20462;-80
2022/02/01 11:00:13;;;;;;;14.20;9.80;;;5.20;99.90;;;;;;5017743;28;20567;-81
2022/02/01 11:02:43;;;;;;;12.13;10.53;;;5.20;99.90;;;;;;5002736;28;20519;-82
2022/02/01 11:05:11;;;;;;;16.40;8.90;;;5.30;99.90;;;;;;5001482;28;20520;-82
2022/02/01 11:07:38;;;;;;;11.90;9.20;;;5.30;99.90;;;;;;5009715;28;20478;-81
2022/02/01 11:10:10;;;;;;;15.40;11.20;;;5.30;99.90;;;;;;5002560;28;20449;-80
2022/02/01 11:12:38;;;;;;;13.63;10.20;;;5.40;99.90;;;;;;5004938;28;20457;-81
2022/02/01 11:15:17;;;;;;;14.40;10.43;;;5.40;99.90;;;;;;4998516;28;20453;-80
2022/02/01 11:17:47;;;;;;;12.10;9.80;;;5.50;99.90;;;;;;4998355;28;20462;-79
2022/02/01 11:20:25;;;;;;;9.90;8.53;;;5.50;99.90;;;;;;5012898;28;20460;-79
2022/02/01 11:23:02;;;;;;;10.30;8.47;;;5.50;99.90;;;;;;5005634;28;20451;-79
2022/02/01 11:25:43;;;;;;;7.67;6.33;;;5.50;99.90;;;;;;5003180;28;20503;-81
2022/02/01 11:28:14;;;;;;;8.50;6.63;;;5.60;99.90;;;;;;4997531;28;20543;-78
2022/02/01 11:30:44;;;;;;;9.43;8.00;;;5.60;99.90;;;;;;5001717;28;20456;-80
2022/02/01 11:33:14;;;;;;;11.37;8.07;;;5.60;99.90;;;;;;5003963;28;20476;-79
2022/02/01 11:35:41;;;;;;;10.63;7.03;;;5.60;99.90;;;;;;5004560;28;20475;-80
2022/02/01 11:38:15;;;;;;;6.97;5.70;;;5.70;99.90;;;;;;5006953;28;20443;-81
2022/02/01 11:40:46;;;;;;;8.67;6.80;;;5.70;99.90;;;;;;5008888;28;20457;-80
2022/02/01 11:43:16;;;;;;;6.17;4.90;;;5.70;99.90;;;;;;5006230;28;20454;-80
2022/02/01 11:45:52;;;;;;;8.03;5.97;;;5.70;99.90;;;;;;4995782;28;20539;-81
2022/02/01 11:48:23;;;;;;;6.90;2.17;;;5.70;99.90;;;;;;5009430;28;20461;-83
2022/02/01 11:50:53;;;;;;;3.57;2.60;;;8.70;99.90;;;;;;5004487;28;20477;-82
2022/02/01 11:53:24;;;;;;;3.40;2.13;;;9.10;99.90;;;;;;5008510;28;20459;-80
2022/02/01 11:55:57;;;;;;;3.00;2.60;;;9.70;99.90;;;;;;5006862;28;20482;-81
2022/02/01 11:58:35;;;;;;;3.60;2.53;;;9.60;99.90;;;;;;5007255;28;20474;-82
2022/02/01 12:01:06;;;;;;;3.13;1.80;;;9.60;99.90;;;;;;5006271;28;20455;-81
2022/02/01 12:03:38;;;;;;;3.30;2.27;;;9.60;99.90;;;;;;5015711;28;20455;-83
2022/02/01 12:06:08;;;;;;;3.30;2.87;;;8.70;99.90;;;;;;5005843;28;20555;-79
2022/02/01 12:08:38;;;;;;;4.70;3.53;;;7.80;99.90;;;;;;5000437;28;20862;-81
2022/02/01 12:11:07;;;;;;;4.00;3.33;;;7.30;99.90;;;;;;5009117;28;20558;-80
2022/02/01 12:13:35;;;;;;;3.27;2.80;;;;;;;;;;5004215;28;20854;-81
2022/02/01 12:16:06;;;;;;;5.67;4.37;;;6.80;99.90;;;;;;5006662;28;20497;-81
2022/02/01 12:18:51;;;;;;;4.50;4.10;;;6.50;99.90;;;;;;5017214;28;20543;-81
2022/02/01 12:21:30;;;;;;;6.93;5.67;;;6.50;99.90;;;;;;5004698;28;20460;-81
2022/02/01 12:23:58;;;;;;;9.33;5.20;;;;;;;;;;5002887;28;20459;-79
2022/02/01 12:26:26;;;;;;;8.67;5.70;;;;;;;;;;4996543;28;20561;-80
2022/02/01 12:28:54;;;;;;;9.20;6.80;;;6.40;99.90;;;;;;4992598;28;20826;-80
2022/02/01 12:31:22;;;;;;;6.87;5.10;;;6.40;99.90;;;;;;4998919;28;20493;-81
2022/02/01 12:33:54;;;;;;;8.80;6.83;;;6.40;99.90;;;;;;5004007;28;20462;-82
2022/02/01 12:36:26;;;;;;;7.50;6.50;;;6.40;99.90;;;;;;4998563;28;20475;-81
2022/02/01 12:38:59;;;;;;;7.30;6.20;;;6.40;99.90;;;;;;4993328;28;20484;-81
2022/02/01 12:41:31;;;;;;;6.67;6.03;;;;;;;;;;5024686;28;20447;-81
2022/02/01 12:46:47;;;;;;;6.97;5.87;;;6.50;99.90;;;;;;4996113;28;20533;-80
2022/02/01 12:49:16;;;;;;;6.77;5.80;;;6.50;99.90;;;;;;4999218;28;20457;-79
2022/02/01 12:51:45;;;;;;;9.93;5.63;;;6.50;99.90;;;;;;4998410;28;20457;-80
2022/02/01 12:54:23;;;;;;;5.93;4.93;;;6.70;99.90;;;;;;5000702;28;20561;-81
2022/02/01 12:56:51;;;;;;;5.83;4.70;;;6.60;99.90;;;;;;5001779;28;20560;-80
2022/02/01 12:59:21;;;;;;;5.60;4.50;;;6.80;99.90;;;;;;4997078;28;20458;-81
2022/02/01 13:01:49;;;;;;;6.47;5.00;;;6.80;99.90;;;;;;4998095;28;20466;-82
2022/02/01 13:04:23;;;;;;;5.70;4.90;;;6.50;99.90;;;;;;5005199;28;20537;-81
2022/02/01 13:06:52;;;;;;;5.90;5.03;;;;;;;;;;4998891;28;20534;-81
2022/02/01 13:15:05;;;;;;;6.60;5.20;;;6.90;99.90;;;;;;5000729;28;20539;-81
2022/02/01 13:17:40;;;;;;;5.33;3.40;;;6.80;99.90;;;;;;5013615;28;20829;-81
2022/02/01 13:20:19;;;;;;;4.90;4.00;;;6.90;99.90;;;;;;4999935;28;20469;-81
2022/02/01 13:22:52;;;;;;;5.60;4.43;;;6.70;99.90;;;;;;4997978;28;20457;-80
2022/02/01 13:25:28;;;;;;;6.90;4.33;;;6.90;99.90;;;;;;4999247;28;20548;-81
2022/02/01 13:27:59;;;;;;;5.90;4.13;;;6.90;99.90;;;;;;5011688;28;20836;-80
2022/02/01 13:30:26;;;;;;;5.47;4.53;;;;;;;;;;5001192;28;20626;-81
2022/02/01 13:32:53;;;;;;;5.57;4.50;;;6.80;99.90;;;;;;5001080;28;20492;-80
2022/02/01 13:35:21;;;;;;;5.37;4.87;;;6.90;99.90;;;;;;4994440;28;20496;-80
2022/02/01 13:37:49;;;;;;;4.40;4.00;;;7.10;99.90;;;;;;5000001;28;20461;-81
2022/02/01 13:40:27;;;;;;;6.90;5.20;;;7.00;99.90;;;;;;5002607;28;20914;-81
2022/02/01 13:42:56;;;;;;;5.07;4.23;;;7.20;99.90;;;;;;5006545;28;20457;-81
2022/02/01 13:45:34;;;;;;;4.97;4.47;;;6.90;99.90;;;;;;4992040;28;20499;-80
2022/02/01 13:48:01;;;;;;;4.47;3.73;;;;;;;;;;4997346;28;20454;-81
2022/02/01 13:50:29;;;;;;;5.77;4.13;;;7.10;99.90;;;;;;4992493;28;20489;-81
2022/02/01 13:52:59;;;;;;;3.93;3.43;;;7.10;99.90;;;;;;4993608;28;20500;-81
2022/02/01 13:55:27;;;;;;;4.83;3.93;;;7.10;99.90;;;;;;4995065;28;20476;-81
2022/02/01 13:58:02;;;;;;;3.70;3.10;;;7.00;99.90;;;;;;5010252;28;20458;-80
2022/02/01 14:00:36;;;;;;;5.47;4.60;;;7.30;99.90;;;;;;5003998;28;20455;-80
2022/02/01 14:03:18;;;;;;;5.70;5.07;;;7.10;99.90;;;;;;5003728;28;20451;-79
2022/02/01 14:05:58;;;;;;;7.03;6.27;;;7.30;99.90;;;;;;4999269;28;20505;-81
2022/02/01 14:08:34;;;;;;;7.10;6.40;;;7.40;99.90;;;;;;4994331;28;20456;-81
2022/02/01 14:11:29;;;;;;;7.90;6.73;;;7.80;99.90;;;;;;4996184;28;20484;-81
2022/02/01 14:14:15;;;;;;;6.60;5.90;;;;;;;;;;5003153;28;20458;-81
2022/02/01 14:28:08;;;;;;;13.50;9.93;;;7.20;99.90;;;;;;4997693;28;20524;-80